createdAt,value
2022-11-21T00:00:32.640Z,11.70
2022-11-21T00:03:03.747Z,11.75
2022-11-21T00:07:58.355Z,8.98
2022-11-21T00:10:26.201Z,7.55
2022-11-21T00:12:56.865Z,9.63
2022-11-21T00:15:25.093Z,11.80
2022-11-21T00:17:52.145Z,10.10
2022-11-21T00:20:20.548Z,9.77
2022-11-21T00:22:47.298Z,10.93
2022-11-21T00:25:14.391Z,10.82
2022-11-21T00:27:41.662Z,9.40
2022-11-21T00:30:10.403Z,9.70
2022-11-21T00:32:36.991Z,9.57
2022-11-21T00:35:04.551Z,9.57
2022-11-21T00:37:32.705Z,10.07
2022-11-21T00:39:59.381Z,9.63
2022-11-21T00:42:26.108Z,10.93
2022-11-21T00:44:52.705Z,12.48
2022-11-21T00:47:19.554Z,9.38
2022-11-21T00:49:46.475Z,7.85
2022-11-21T00:52:13.038Z,11.23
2022-11-21T00:54:39.627Z,9.48
2022-11-21T00:57:06.279Z,10.32
2022-11-21T00:59:32.869Z,9.38
2022-11-21T01:01:59.560Z,10.38
2022-11-21T01:04:26.712Z,7.78
2022-11-21T01:06:54.100Z,12.50
2022-11-21T01:09:20.711Z,11.30
2022-11-21T01:11:47.427Z,11.10
2022-11-21T01:14:14.005Z,12.25
2022-11-21T01:16:40.594Z,9.52
2022-11-21T01:19:07.374Z,8.68
2022-11-21T01:21:33.956Z,11.13
2022-11-21T01:24:01.435Z,9.63
2022-11-21T01:26:30.489Z,12.48
2022-11-21T01:29:00.432Z,9.32
2022-11-21T01:31:29.260Z,9.73
2022-11-21T01:33:58.392Z,10.25
2022-11-21T01:36:30.950Z,11.48
2022-11-21T01:39:00.307Z,12.57
2022-11-21T01:41:33.781Z,10.60
2022-11-21T01:44:02.004Z,10.63
2022-11-21T01:46:28.896Z,9.30
2022-11-21T01:49:04.581Z,11.18
2022-11-21T01:51:37.472Z,11.40
2022-11-21T01:54:21.694Z,11.77
2022-11-21T01:57:09.791Z,9.75
2022-11-21T01:59:36.600Z,9.65
2022-11-21T02:02:06.463Z,11.80
2022-11-21T02:04:34.636Z,11.27
2022-11-21T02:07:04.469Z,12.05
2022-11-21T02:09:33.316Z,10.68
2022-11-21T02:12:11.826Z,11.57
2022-11-21T02:14:42.472Z,9.85
2022-11-21T02:17:10.000Z,10.65
2022-11-21T02:19:44.929Z,11.55
2022-11-21T02:22:22.032Z,13.25
2022-11-21T02:25:00.919Z,12.55
2022-11-21T02:27:28.320Z,12.77
2022-11-21T02:29:55.269Z,12.13
2022-11-21T02:32:32.097Z,10.95
2022-11-21T02:34:58.667Z,10.05
2022-11-21T02:37:25.255Z,13.02
2022-11-21T02:39:52.061Z,12.32
2022-11-21T02:42:18.639Z,12.10
2022-11-21T02:44:56.110Z,11.32
2022-11-21T02:47:23.448Z,14.35
2022-11-21T02:50:02.902Z,14.00
2022-11-21T02:52:29.545Z,12.02
2022-11-21T02:54:56.105Z,13.40
2022-11-21T02:57:22.800Z,11.52
2022-11-21T02:59:49.503Z,13.32
2022-11-21T03:02:16.072Z,12.00
2022-11-21T03:04:42.770Z,12.60
2022-11-21T03:07:09.492Z,14.82
2022-11-21T03:09:36.081Z,13.60
2022-11-21T03:12:07.367Z,12.80
2022-11-21T03:14:35.228Z,12.98
2022-11-21T03:17:01.965Z,11.20
2022-11-21T03:19:28.797Z,11.70
2022-11-21T03:21:56.026Z,11.82
2022-11-21T03:24:22.885Z,11.75
2022-11-21T03:26:50.186Z,11.40
2022-11-21T03:29:16.919Z,13.93
2022-11-21T03:31:43.462Z,11.80
2022-11-21T03:34:10.235Z,12.70
2022-11-21T03:36:36.992Z,12.43
2022-11-21T03:39:04.456Z,10.10
2022-11-21T03:41:31.315Z,15.38
2022-11-21T03:44:11.387Z,10.10
2022-11-21T03:46:41.367Z,11.38
2022-11-21T03:49:08.288Z,14.40
2022-11-21T03:51:35.744Z,14.05
2022-11-21T03:54:02.856Z,12.55
2022-11-21T03:56:29.499Z,10.40
2022-11-21T03:58:56.558Z,10.65
2022-11-21T04:01:23.896Z,12.15
2022-11-21T04:03:51.288Z,12.20
2022-11-21T04:06:19.980Z,10.50
2022-11-21T04:08:47.305Z,11.02
2022-11-21T04:11:13.928Z,12.43
2022-11-21T04:13:40.500Z,10.98
2022-11-21T04:16:07.280Z,12.75
2022-11-21T04:18:35.152Z,12.60
2022-11-21T04:21:04.620Z,15.70
2022-11-21T04:23:31.749Z,13.55
2022-11-21T04:25:58.684Z,10.45
2022-11-21T04:28:25.388Z,11.75
2022-11-21T04:30:54.893Z,12.60
2022-11-21T04:33:21.805Z,11.25
2022-11-21T04:35:48.424Z,10.88
2022-11-21T04:38:15.516Z,15.52
2022-11-21T04:40:43.610Z,13.35
2022-11-21T04:43:10.172Z,10.48
2022-11-21T04:45:36.914Z,9.68
2022-11-21T04:48:03.706Z,11.90
2022-11-21T04:50:30.349Z,12.30
2022-11-21T04:52:57.903Z,15.43
2022-11-21T04:55:29.239Z,9.98
2022-11-21T04:57:55.889Z,12.50
2022-11-21T05:00:24.479Z,14.73
2022-11-21T05:02:51.425Z,10.82
2022-11-21T05:05:18.004Z,14.10
2022-11-21T05:07:44.805Z,16.02
2022-11-21T05:10:12.693Z,11.20
2022-11-21T05:12:57.880Z,13.20
2022-11-21T05:15:25.193Z,11.13
2022-11-21T05:17:52.184Z,11.70
2022-11-21T05:20:19.175Z,11.55
2022-11-21T05:22:50.002Z,11.32
2022-11-21T05:25:16.693Z,10.73
2022-11-21T05:27:43.501Z,9.68
2022-11-21T05:30:11.607Z,11.85
2022-11-21T05:32:38.197Z,10.63
2022-11-21T05:35:05.301Z,10.60
2022-11-21T05:37:31.956Z,11.57
2022-11-21T05:39:58.704Z,15.68
2022-11-21T05:42:44.000Z,11.27
2022-11-21T05:45:10.907Z,11.88
2022-11-21T05:47:37.492Z,11.85
2022-11-21T05:50:04.744Z,9.82
2022-11-21T05:52:31.361Z,9.95
2022-11-21T05:54:57.928Z,13.00
2022-11-21T05:57:24.738Z,10.52
2022-11-21T05:59:51.553Z,12.80
2022-11-21T06:02:36.865Z,10.05
2022-11-21T06:05:03.571Z,11.57
2022-11-21T06:07:30.190Z,9.82
2022-11-21T06:09:56.919Z,10.52
2022-11-21T06:12:25.617Z,11.45
2022-11-21T06:14:52.617Z,11.95
2022-11-21T06:17:19.485Z,10.48
2022-11-21T06:19:46.152Z,11.57
2022-11-21T06:22:12.705Z,10.32
2022-11-21T06:24:39.411Z,11.43
2022-11-21T06:27:06.033Z,10.20
2022-11-21T06:29:32.553Z,12.43
2022-11-21T06:31:59.244Z,9.60
2022-11-21T06:34:27.381Z,9.48
2022-11-21T06:36:54.278Z,10.35
2022-11-21T06:39:20.928Z,9.95
2022-11-21T06:41:51.323Z,11.48
2022-11-21T06:44:18.649Z,10.95
2022-11-21T06:46:50.700Z,11.80
2022-11-21T06:49:18.109Z,11.57
2022-11-21T06:51:44.749Z,10.32
2022-11-21T06:54:15.292Z,10.60
2022-11-21T06:56:43.102Z,10.98
2022-11-21T06:59:09.661Z,13.38
2022-11-21T07:01:36.453Z,12.02
2022-11-21T07:04:03.170Z,12.65
2022-11-21T07:06:29.737Z,11.95
2022-11-21T07:09:25.213Z,13.25
2022-11-21T07:11:43.290Z,14.60
2022-11-21T07:14:10.321Z,14.82
2022-11-21T07:16:37.296Z,14.50
2022-11-21T07:19:05.821Z,13.35
2022-11-21T07:21:32.850Z,12.18
2022-11-21T07:23:59.739Z,11.13
2022-11-21T07:26:26.375Z,14.45
2022-11-21T07:28:53.028Z,12.85
2022-11-21T07:31:19.572Z,9.90
2022-11-21T07:33:47.567Z,13.25
2022-11-21T07:36:14.423Z,11.73
2022-11-21T07:38:41.777Z,12.45
2022-11-21T07:41:09.083Z,11.50
2022-11-21T07:43:35.904Z,17.55
2022-11-21T07:46:02.546Z,14.45
2022-11-21T07:48:29.451Z,12.25
2022-11-21T07:50:56.102Z,13.70
2022-11-21T07:53:22.717Z,13.10
2022-11-21T07:55:49.331Z,12.25
2022-11-21T07:58:17.845Z,14.00
2022-11-21T08:00:44.468Z,11.77
2022-11-21T08:03:12.722Z,12.15
2022-11-21T08:05:43.992Z,11.05
2022-11-21T08:08:12.816Z,11.15
2022-11-21T08:10:42.036Z,17.35
2022-11-21T08:13:08.746Z,11.52
2022-11-21T08:15:36.582Z,10.68
2022-11-21T08:18:14.934Z,9.48
2022-11-21T08:20:42.851Z,9.93
2022-11-21T08:23:10.353Z,11.70
2022-11-21T08:25:38.543Z,10.27
2022-11-21T08:28:05.598Z,9.32
2022-11-21T08:30:32.656Z,9.52
2022-11-21T08:32:59.857Z,10.23
2022-11-21T08:35:27.485Z,8.52
2022-11-21T08:38:01.432Z,8.32
2022-11-21T08:40:30.675Z,9.02
2022-11-21T08:43:02.928Z,9.20
2022-11-21T08:45:30.222Z,10.50
2022-11-21T08:47:56.829Z,10.45
2022-11-21T08:50:24.307Z,10.35
2022-11-21T08:52:51.227Z,8.65
2022-11-21T08:55:18.243Z,9.32
2022-11-21T08:57:44.992Z,7.60
2022-11-21T09:00:15.093Z,8.90
2022-11-21T09:02:41.954Z,13.52
2022-11-21T09:05:09.388Z,10.85
2022-11-21T09:07:36.490Z,5.78
2022-11-21T09:10:03.674Z,10.18
2022-11-21T09:12:31.446Z,6.95
2022-11-21T09:15:19.422Z,9.90
2022-11-21T09:18:04.333Z,7.78
2022-11-21T09:20:39.476Z,10.10
2022-11-21T09:23:07.479Z,11.30
2022-11-21T09:25:34.397Z,9.52
2022-11-21T09:28:03.171Z,9.23
2022-11-21T09:30:29.922Z,8.35
2022-11-21T09:33:01.098Z,11.18
2022-11-21T09:35:28.000Z,10.18
2022-11-21T09:37:54.718Z,7.43
2022-11-21T09:40:25.219Z,9.18
2022-11-21T09:43:03.154Z,7.15
2022-11-21T09:45:36.755Z,10.82
2022-11-21T09:48:29.441Z,10.18
2022-11-21T09:51:01.678Z,10.50
2022-11-21T09:53:36.772Z,9.65
2022-11-21T09:56:13.082Z,9.30
2022-11-21T09:58:48.120Z,11.38
2022-11-21T10:01:16.380Z,10.55
2022-11-21T10:03:49.416Z,8.95
2022-11-21T10:06:29.943Z,8.32
2022-11-21T10:09:15.073Z,8.18
2022-11-21T10:12:25.253Z,9.93
2022-11-21T10:15:26.988Z,9.35
2022-11-21T10:18:21.128Z,10.02
2022-11-21T10:21:24.444Z,13.02
2022-11-21T10:23:58.923Z,9.82
2022-11-21T10:26:44.024Z,10.90
2022-11-21T10:29:32.474Z,9.65
2022-11-21T10:32:04.749Z,11.23
2022-11-21T10:34:37.700Z,12.80
2022-11-21T10:37:26.889Z,10.27
2022-11-21T10:39:55.918Z,9.25
2022-11-21T10:42:24.764Z,9.65
2022-11-21T10:45:10.866Z,10.20
2022-11-21T10:47:37.940Z,10.30
2022-11-21T10:50:10.479Z,8.20
2022-11-21T10:52:45.301Z,10.40
2022-11-21T10:55:16.857Z,12.90
2022-11-21T10:57:54.428Z,11.60
2022-11-21T11:00:26.875Z,10.18
2022-11-21T11:03:07.704Z,13.75
2022-11-21T11:05:38.904Z,8.75
2022-11-21T11:08:09.330Z,11.90
2022-11-21T11:10:41.879Z,11.27
2022-11-21T11:13:46.953Z,9.25
2022-11-21T11:16:19.365Z,8.40
2022-11-21T11:18:53.890Z,7.28
2022-11-21T11:21:26.853Z,9.82
2022-11-21T11:23:55.229Z,10.98
2022-11-21T11:26:27.623Z,7.97
2022-11-21T11:29:07.636Z,8.50
2022-11-21T11:31:59.331Z,7.72
2022-11-21T11:34:28.878Z,9.75
2022-11-21T11:37:09.485Z,10.27
2022-11-21T11:39:48.005Z,12.13
2022-11-21T11:42:47.143Z,8.43
2022-11-21T11:45:32.845Z,9.27
2022-11-21T11:48:01.692Z,8.15
2022-11-21T11:50:44.657Z,7.65
2022-11-21T11:53:17.480Z,12.00
2022-11-21T11:55:52.332Z,9.98
2022-11-21T11:58:31.952Z,9.43
2022-11-21T12:01:16.872Z,7.32
2022-11-21T12:03:47.042Z,8.18
2022-11-21T12:06:22.030Z,9.05
2022-11-21T12:08:59.868Z,5.88
2022-11-21T12:12:07.175Z,7.38
2022-11-21T12:15:04.437Z,5.10
2022-11-21T12:17:57.592Z,6.10
2022-11-21T12:20:30.331Z,5.22
2022-11-21T12:22:57.443Z,5.07
2022-11-21T12:25:33.164Z,5.07
2022-11-21T12:27:59.980Z,5.72
2022-11-21T12:30:50.055Z,4.28
2022-11-21T12:33:23.765Z,5.93
2022-11-21T12:36:04.875Z,6.60
2022-11-21T12:39:04.653Z,6.57
2022-11-21T12:42:16.509Z,7.78
2022-11-21T12:45:10.605Z,7.78
2022-11-21T12:48:22.379Z,9.30
2022-11-21T12:51:26.539Z,5.40
2022-11-21T12:54:28.680Z,5.60
2022-11-21T12:57:10.444Z,8.98
2022-11-21T13:00:00.740Z,7.65
2022-11-21T13:02:57.068Z,8.57
2022-11-21T13:05:30.672Z,5.43
2022-11-21T13:08:26.079Z,6.07
2022-11-21T13:11:25.491Z,9.35
2022-11-21T13:14:12.679Z,5.78
2022-11-21T13:16:48.361Z,5.85
2022-11-21T13:19:19.337Z,9.00
2022-11-21T13:21:48.419Z,7.30
2022-11-21T13:24:44.177Z,4.15
2022-11-21T13:27:35.013Z,7.20
2022-11-21T13:30:07.733Z,7.88
2022-11-21T13:32:44.610Z,5.80
2022-11-21T13:35:20.120Z,3.58
2022-11-21T13:37:49.820Z,7.57
2022-11-21T13:40:28.539Z,5.68
2022-11-21T13:43:32.789Z,8.57
2022-11-21T13:45:59.345Z,5.60
2022-11-21T13:48:28.863Z,4.53
2022-11-21T13:51:20.463Z,8.10
2022-11-21T13:54:06.186Z,4.55
2022-11-21T13:56:36.458Z,7.25
2022-11-21T13:59:21.326Z,5.35
2022-11-21T14:01:50.733Z,6.25
2022-11-21T14:04:35.435Z,9.32
2022-11-21T14:07:29.202Z,4.00
2022-11-21T14:09:58.463Z,5.93
2022-11-21T14:12:33.700Z,7.72
2022-11-21T14:15:02.004Z,7.70
2022-11-21T14:17:44.667Z,6.57
2022-11-21T14:20:24.875Z,3.08
2022-11-21T14:22:58.778Z,4.43
2022-11-21T14:25:42.046Z,3.95
2022-11-21T14:28:13.119Z,4.30
2022-11-21T14:33:26.115Z,5.25
2022-11-21T14:35:56.900Z,5.28
2022-11-21T14:38:24.220Z,2.72
2022-11-21T14:40:51.592Z,6.60
2022-11-21T14:43:32.894Z,5.55
2022-11-21T14:46:00.259Z,6.53
2022-11-21T14:48:31.002Z,3.90
2022-11-21T14:50:59.808Z,4.97
2022-11-21T14:53:28.008Z,6.00
2022-11-21T14:55:58.306Z,3.88
2022-11-21T14:58:28.074Z,4.47
2022-11-21T15:01:19.690Z,5.45
2022-11-21T15:04:07.303Z,6.07
2022-11-21T15:06:45.049Z,4.20
2022-11-21T15:10:25.129Z,8.18
2022-11-21T15:14:41.868Z,4.30
2022-11-21T15:17:13.744Z,7.07
2022-11-21T15:19:42.329Z,7.28
2022-11-21T15:22:39.552Z,4.43
2022-11-21T15:25:17.467Z,5.85
2022-11-21T15:27:59.545Z,5.32
2022-11-21T15:30:28.925Z,7.55
2022-11-21T15:33:19.314Z,6.90
2022-11-21T15:35:50.408Z,8.88
2022-11-21T15:41:00.127Z,5.55
2022-11-21T15:43:39.363Z,4.50
2022-11-21T15:46:20.268Z,5.60
2022-11-21T15:48:54.810Z,3.17
2022-11-21T15:51:51.453Z,5.78
2022-11-21T15:56:40.467Z,5.00
2022-11-21T15:59:08.022Z,7.13
2022-11-21T16:01:35.357Z,4.95
2022-11-21T16:04:04.473Z,4.38
2022-11-21T16:06:31.624Z,4.60
2022-11-21T16:08:58.831Z,4.10
2022-11-21T16:11:29.628Z,3.53
2022-11-21T16:14:01.298Z,6.15
2022-11-21T16:16:30.328Z,5.32
2022-11-21T16:18:57.512Z,5.07
2022-11-21T16:21:25.279Z,5.85
2022-11-21T16:23:52.331Z,5.43
2022-11-21T16:26:19.548Z,4.18
2022-11-21T16:28:47.030Z,4.43
2022-11-21T16:31:21.867Z,4.50
2022-11-21T16:33:48.521Z,5.90
2022-11-21T16:36:23.117Z,3.53
2022-11-21T16:38:50.524Z,3.08
2022-11-21T16:41:19.424Z,4.30
2022-11-21T16:43:49.611Z,3.60
2022-11-21T16:46:17.462Z,3.60
2022-11-21T16:48:44.233Z,3.40
2022-11-21T16:51:16.660Z,3.33
2022-11-21T16:53:44.325Z,6.85
2022-11-21T16:56:11.517Z,3.15
2022-11-21T16:58:39.601Z,3.90
2022-11-21T17:01:14.421Z,2.15
2022-11-21T17:03:44.502Z,3.47
2022-11-21T17:06:14.149Z,3.33
2022-11-21T17:08:40.924Z,2.65
2022-11-21T17:11:17.764Z,4.03
2022-11-21T17:13:47.172Z,2.95
2022-11-21T17:16:15.734Z,7.25
2022-11-21T17:18:42.698Z,4.07
2022-11-21T17:21:12.941Z,3.05
2022-11-21T17:23:41.278Z,3.88
2022-11-21T17:26:09.963Z,4.00
2022-11-21T17:28:39.814Z,3.53
2022-11-21T17:31:12.685Z,3.83
2022-11-21T17:33:40.098Z,2.67
2022-11-21T17:36:11.040Z,4.13
2022-11-21T17:38:38.110Z,4.03
2022-11-21T17:41:06.882Z,4.05
2022-11-21T17:43:34.126Z,4.78
2022-11-21T17:46:10.395Z,4.65
2022-11-21T17:48:37.885Z,6.50
2022-11-21T17:51:16.182Z,4.25
2022-11-21T17:53:45.224Z,5.00
2022-11-21T17:56:14.816Z,5.18
2022-11-21T17:58:42.008Z,4.38
2022-11-21T18:01:13.756Z,5.28
2022-11-21T18:03:40.839Z,6.32
2022-11-21T18:06:09.841Z,3.13
2022-11-21T18:08:38.721Z,4.38
2022-11-21T18:11:06.799Z,5.25
2022-11-21T18:13:34.977Z,3.83
2022-11-21T18:16:06.983Z,4.10
2022-11-21T18:18:35.497Z,3.28
2022-11-21T18:21:07.320Z,2.80
2022-11-21T18:23:34.458Z,2.97
2022-11-21T18:26:21.287Z,3.83
2022-11-21T18:28:57.238Z,2.75
2022-11-21T18:31:36.885Z,2.30
2022-11-21T18:34:05.388Z,3.03
2022-11-21T18:36:32.911Z,2.92
2022-11-21T18:39:05.898Z,3.42
2022-11-21T18:41:34.599Z,3.90
2022-11-21T18:44:03.802Z,3.25
2022-11-21T18:46:32.064Z,3.55
2022-11-21T18:49:05.842Z,3.88
2022-11-21T18:51:34.475Z,4.20
2022-11-21T18:54:05.331Z,5.07
2022-11-21T18:56:32.207Z,3.42
2022-11-21T18:58:59.545Z,4.95
2022-11-21T19:01:28.467Z,3.35
2022-11-21T19:03:55.992Z,3.88
2022-11-21T19:06:25.590Z,3.95
2022-11-21T19:08:53.685Z,4.53
2022-11-21T19:11:21.971Z,5.30
2022-11-21T19:13:49.333Z,5.38
2022-11-21T19:16:21.567Z,4.18
2022-11-21T19:19:11.684Z,4.78
2022-11-21T19:21:37.882Z,6.28
2022-11-21T19:24:06.880Z,5.35
2022-11-21T19:26:33.867Z,7.47
2022-11-21T19:29:00.832Z,5.72
2022-11-21T19:31:28.115Z,4.47
2022-11-21T19:33:54.681Z,5.05
2022-11-21T19:36:23.497Z,5.30
2022-11-21T19:38:52.096Z,5.80
2022-11-21T19:41:25.437Z,4.70
2022-11-21T19:43:59.733Z,7.38
2022-11-21T19:46:28.559Z,4.38
2022-11-21T19:48:56.809Z,5.95
2022-11-21T19:51:28.374Z,6.75
2022-11-21T19:53:55.368Z,6.75
2022-11-21T19:56:23.986Z,5.15
2022-11-21T19:58:52.327Z,8.18
2022-11-21T20:01:21.543Z,7.47
2022-11-21T20:03:50.924Z,5.75
2022-11-21T20:06:23.218Z,7.78
2022-11-21T20:08:50.867Z,7.90
2022-11-21T20:11:17.864Z,6.40
2022-11-21T20:13:47.858Z,6.57
2022-11-21T20:16:28.066Z,7.60
2022-11-21T20:18:57.757Z,7.20
2022-11-21T20:21:24.780Z,7.97
2022-11-21T20:23:51.758Z,7.55
2022-11-21T20:26:20.222Z,7.30
2022-11-21T20:28:47.627Z,8.18
2022-11-21T20:31:17.231Z,8.02
2022-11-21T20:33:46.365Z,8.13
2022-11-21T20:36:19.364Z,7.13
2022-11-21T20:39:06.604Z,7.97
2022-11-21T20:41:35.869Z,6.80
2022-11-21T20:46:51.886Z,7.90
2022-11-21T20:49:18.534Z,6.55
2022-11-21T20:54:32.054Z,8.85
2022-11-21T20:56:58.967Z,8.55
2022-11-21T20:59:26.632Z,7.68
2022-11-21T21:01:53.980Z,13.80
2022-11-21T21:04:20.631Z,9.57
2022-11-21T21:06:47.194Z,8.82
2022-11-21T21:09:13.840Z,9.63
2022-11-21T21:11:55.662Z,10.55
2022-11-21T21:14:22.610Z,7.95
2022-11-21T21:16:49.636Z,9.23
2022-11-21T21:19:16.458Z,9.55
2022-11-21T21:21:43.328Z,8.40
2022-11-21T21:24:12.272Z,8.48
2022-11-21T21:26:43.063Z,8.82
2022-11-21T21:29:18.605Z,8.07
2022-11-21T21:31:50.939Z,11.27
2022-11-21T21:34:19.607Z,9.00
2022-11-21T21:36:46.461Z,12.32
2022-11-21T21:39:13.098Z,10.93
2022-11-21T21:41:41.563Z,11.73
2022-11-21T21:44:08.102Z,8.90
2022-11-21T21:46:34.709Z,9.25
2022-11-21T21:49:01.561Z,9.27
2022-11-21T21:51:30.182Z,10.27
2022-11-21T21:53:58.565Z,10.07
2022-11-21T21:56:27.104Z,12.55
2022-11-21T21:58:54.079Z,11.48
2022-11-21T22:01:23.343Z,9.10
2022-11-21T22:03:54.337Z,12.20
2022-11-21T22:06:20.919Z,13.40
2022-11-21T22:08:51.448Z,10.68
2022-11-21T22:11:23.155Z,9.70
2022-11-21T22:13:55.530Z,10.15
2022-11-21T22:16:22.635Z,10.07
2022-11-21T22:18:49.548Z,13.70
2022-11-21T22:21:20.463Z,10.20
2022-11-21T22:24:09.843Z,9.77
2022-11-21T22:26:34.196Z,9.52
2022-11-21T22:29:00.830Z,11.63
2022-11-21T22:31:30.676Z,10.75
2022-11-21T22:33:57.728Z,11.00
2022-11-21T22:36:24.338Z,14.63
2022-11-21T22:38:54.869Z,8.90
2022-11-21T22:41:27.110Z,10.38
2022-11-21T22:43:56.275Z,11.63
2022-11-21T22:46:24.034Z,10.93
2022-11-21T22:48:50.804Z,10.43
2022-11-21T22:51:20.206Z,10.80
2022-11-21T22:53:48.073Z,11.73
2022-11-21T22:56:16.961Z,12.55
2022-11-21T22:58:43.837Z,9.27
2022-11-21T23:01:13.186Z,12.82
2022-11-21T23:03:40.701Z,10.00
2022-11-21T23:06:10.067Z,11.13
2022-11-21T23:08:37.357Z,9.48
2022-11-21T23:11:12.140Z,12.35
2022-11-21T23:13:40.340Z,12.32
2022-11-21T23:16:07.702Z,11.43
2022-11-21T23:18:35.180Z,12.18
2022-11-21T23:21:02.284Z,13.13
2022-11-21T23:23:29.238Z,11.30
2022-11-21T23:25:56.016Z,11.98
2022-11-21T23:28:22.658Z,15.32
2022-11-21T23:30:50.220Z,13.55
2022-11-21T23:33:17.512Z,12.63
2022-11-21T23:35:45.616Z,11.70
2022-11-21T23:38:13.287Z,14.55
2022-11-21T23:40:40.757Z,12.27
2022-11-21T23:43:07.449Z,13.82
2022-11-21T23:45:34.252Z,11.32
2022-11-21T23:48:01.044Z,15.60
2022-11-21T23:50:27.655Z,16.33
2022-11-21T23:52:54.352Z,16.05
2022-11-21T23:55:21.110Z,15.00
2022-11-21T23:57:49.329Z,12.25
